This is the latest recevied weather packets stored in our database for station/object ON4CDJ-13. If no packets are shown the sender has not sent any weather packets the latest 10 day(s).
| Time | Temp. | Humidity | Pressure | Rain* | Wind** | Luminosity | Snow |
|---|---|---|---|---|---|---|---|
| 1777742170 | 23.33° C | 55% | 1014.2 hPa | 0 mm | - | 53 W/m² | - |
| 1777728925 | 23.89° C | 52% | 1017.4 hPa | 0 mm | - | 350 W/m² | - |
| 1777727753 | 23.33° C | 53% | 1017.6 hPa | 0 mm | - | 618 W/m² | - |
| 1777726575 | 23.89° C | 52% | 1017.8 hPa | 0 mm | - | 415 W/m² | - |
| 1777724719 | 22.22° C | 59% | 1018.2 hPa | 0 mm | - | 273 W/m² | - |
| 1777721756 | 21.67° C | 63% | 1018.8 hPa | 0 mm | - | 385 W/m² | - |
| 1777715766 | 18.89° C | 74% | 1019.7 hPa | 0 mm | - | 206 W/m² | - |
| 1777712170 | 18.33° C | 77% | 1020 hPa | 0 mm | - | 413 W/m² | - |
| 1777710320 | 17.78° C | 77% | 1020 hPa | 0 mm | - | 339 W/m² | - |
| 1777708525 | 17.22° C | 80% | 1020.1 hPa | 0 mm | - | 279 W/m² | - |
| 1777707971 | 16.67° C | 80% | 1020.1 hPa | 0 mm | - | 281 W/m² | - |
| 1777696545 | 13.33° C | 85% | 1019.7 hPa | 0.51 mm | - | 2 W/m² | - |
| 1777695928 | 13.33° C | 84% | 1019.7 hPa | 0.51 mm | - | 1 W/m² | - |
| 1777695368 | 13.89° C | 82% | 1019.8 hPa | 0.51 mm | - | 0 W/m² | - |
| 1777694754 | 13.89° C | 78% | 1020.1 hPa | 0.25 mm | - | 0 W/m² | - |
| 1777692959 | 13.89° C | 71% | 1020.4 hPa | 0 mm | - | 0 W/m² | - |
| 1777690560 | 12.78° C | 74% | 1020.3 hPa | 0 mm | - | 0 W/m² | - |
| 1777687536 | 11.67° C | 76% | 1020.1 hPa | 0 mm | - | 0 W/m² | - |
| 1777686368 | 11.67° C | 75% | 1020.1 hPa | 0 mm | - | 0 W/m² | - |
| 1777680932 | 12.22° C | 71% | 1020.8 hPa | 0 mm | - | 0 W/m² | - |
| 1777677346 | 13.89° C | 62% | 1021.1 hPa | 0 mm | - | 0 W/m² | - |
| 1777675589 | 15° C | 56% | 1021.3 hPa | 0 mm | - | 0 W/m² | - |
| 1777672536 | 13.33° C | 65% | 1021.7 hPa | 0 mm | - | 0 W/m² | - |
| 1777668348 | 15° C | 61% | 1021.5 hPa | 0 mm | - | 0 W/m² | - |
| 1777664761 | 16.11° C | 55% | 1021.5 hPa | 0 mm | - | 0 W/m² | - |
* Rain latest hour (hover to see other rain measurements)
** Current wind speed in m/s (hover to see current wind gust speed)